createdAt,value
2022-09-10T00:03:39.689Z,46.50
2022-09-10T00:08:42.948Z,46.50
2022-09-10T00:13:47.552Z,46.60
2022-09-10T00:18:51.239Z,46.50
2022-09-10T00:23:54.877Z,46.20
2022-09-10T00:29:00.278Z,46.20
2022-09-10T00:34:05.780Z,46.30
2022-09-10T00:39:11.249Z,46.20
2022-09-10T00:44:56.965Z,46.40
2022-09-10T00:50:06.861Z,47.00
2022-09-10T00:55:11.155Z,47.10
2022-09-10T01:00:17.051Z,47.10
2022-09-10T01:05:21.025Z,47.30
2022-09-10T01:10:29.020Z,47.10
2022-09-10T01:15:41.065Z,47.20
2022-09-10T01:21:07.099Z,47.10
2022-09-10T01:26:21.779Z,46.80
2022-09-10T01:31:32.516Z,46.50
2022-09-10T01:36:39.874Z,46.10
2022-09-10T01:41:43.739Z,46.10
2022-09-10T01:47:01.109Z,45.90
2022-09-10T01:52:25.538Z,46.10
2022-09-10T01:57:45.069Z,46.30
2022-09-10T02:02:57.935Z,46.20
2022-09-10T02:08:23.722Z,46.10
2022-09-10T02:13:29.763Z,46.10
2022-09-10T02:18:53.459Z,46.00
2022-09-10T02:23:59.049Z,45.90
2022-09-10T02:29:02.952Z,45.60
2022-09-10T02:34:07.627Z,45.30
2022-09-10T02:39:11.254Z,45.10
2022-09-10T02:44:14.600Z,45.30
2022-09-10T02:49:21.003Z,45.40
2022-09-10T02:54:25.157Z,45.50
2022-09-10T02:59:30.993Z,45.60
2022-09-10T03:04:35.593Z,45.80
2022-09-10T03:09:41.200Z,45.90
2022-09-10T03:14:45.130Z,45.90
2022-09-10T03:19:49.725Z,46.10
2022-09-10T03:24:53.361Z,46.10
2022-09-10T03:29:56.970Z,45.90
2022-09-10T03:35:01.741Z,45.90
2022-09-10T03:40:05.891Z,46.00
2022-09-10T03:45:10.090Z,46.20
2022-09-10T03:50:15.589Z,46.30
2022-09-10T03:55:19.221Z,46.30
2022-09-10T04:00:22.681Z,46.30
2022-09-10T04:05:27.724Z,46.30
2022-09-10T04:10:31.067Z,46.10
2022-09-10T04:15:34.957Z,46.10
2022-09-10T04:20:41.221Z,46.00
2022-09-10T04:25:47.660Z,45.90
2022-09-10T04:30:51.528Z,45.90
2022-09-10T04:36:00.568Z,46.00
2022-09-10T04:41:03.837Z,46.60
2022-09-10T04:46:07.727Z,45.80
2022-09-10T04:51:18.106Z,45.80
2022-09-10T04:56:27.691Z,45.90
2022-09-10T05:01:31.415Z,46.00
2022-09-10T05:06:36.405Z,46.10
2022-09-10T05:11:41.533Z,46.30
2022-09-10T05:16:46.397Z,46.30
2022-09-10T05:21:51.270Z,46.30
2022-09-10T05:26:54.559Z,46.30
2022-09-10T05:31:58.792Z,46.30
2022-09-10T05:37:04.242Z,46.40
2022-09-10T05:42:08.160Z,46.50
2022-09-10T05:47:13.514Z,46.40
2022-09-10T05:52:18.777Z,46.30
2022-09-10T05:57:22.200Z,46.90
2022-09-10T06:02:26.439Z,46.10
2022-09-10T06:07:34.097Z,46.10
2022-09-10T06:12:38.300Z,46.10
2022-09-10T06:17:42.286Z,46.10
2022-09-10T06:22:47.543Z,46.10
2022-09-10T06:27:50.918Z,46.00
2022-09-10T06:32:54.415Z,46.70
2022-09-10T06:37:59.722Z,46.20
2022-09-10T06:43:04.294Z,47.00
2022-09-10T06:48:47.581Z,46.40
2022-09-10T06:53:53.724Z,46.40
2022-09-10T06:59:02.156Z,45.90
2022-09-10T07:04:11.851Z,45.30
2022-09-10T07:09:17.225Z,44.90
2022-09-10T07:14:35.523Z,44.90
2022-09-10T07:19:42.450Z,44.60
2022-09-10T07:24:55.679Z,44.50
2022-09-10T07:30:06.039Z,44.40
2022-09-10T07:35:09.787Z,44.50
2022-09-10T07:40:15.566Z,44.50
2022-09-10T07:45:19.657Z,44.10
2022-09-10T07:50:24.139Z,44.90
2022-09-10T07:55:32.542Z,44.30
2022-09-10T08:00:37.494Z,44.30
2022-09-10T08:05:44.057Z,44.40
2022-09-10T08:10:50.135Z,44.40
2022-09-10T08:15:55.495Z,44.50
2022-09-10T08:21:00.145Z,44.60
2022-09-10T08:26:06.557Z,44.60
2022-09-10T08:31:12.514Z,44.40
2022-09-10T08:36:24.879Z,44.30
2022-09-10T08:41:40.398Z,44.30
2022-09-10T08:47:02.906Z,43.90
2022-09-10T08:52:15.966Z,43.90
2022-09-10T08:57:26.456Z,43.80
2022-09-10T09:02:48.873Z,43.80
2022-09-10T09:07:55.126Z,43.50
2022-09-10T09:13:22.097Z,43.80
2022-09-10T09:18:33.057Z,42.90
2022-09-10T09:24:12.307Z,43.40
2022-09-10T09:29:20.650Z,43.10
2022-09-10T09:34:32.766Z,42.70
2022-09-10T09:39:42.618Z,42.10
2022-09-10T09:44:57.184Z,42.30
2022-09-10T09:50:02.163Z,41.70
2022-09-10T09:55:14.822Z,41.90
2022-09-10T10:05:49.300Z,41.70
2022-09-10T10:10:53.985Z,43.00
2022-09-10T10:15:57.213Z,43.10
2022-09-10T10:21:16.627Z,43.30
2022-09-10T10:26:29.156Z,42.50
2022-09-10T10:31:43.432Z,42.60
2022-09-10T10:36:56.351Z,41.50
2022-09-10T10:42:06.229Z,40.90
2022-09-10T10:47:27.118Z,40.40
2022-09-10T10:52:40.717Z,39.50
2022-09-10T10:58:11.193Z,39.50
2022-09-10T11:03:20.403Z,39.00
2022-09-10T11:08:31.483Z,39.60
2022-09-10T11:13:40.675Z,39.00
2022-09-10T11:18:47.591Z,38.10
2022-09-10T11:23:58.260Z,38.10
2022-09-10T11:29:22.394Z,37.10
2022-09-10T11:34:34.622Z,36.30
2022-09-10T11:39:44.825Z,36.80
2022-09-10T11:44:57.081Z,37.10
2022-09-10T11:50:05.166Z,37.40
2022-09-10T11:55:17.450Z,37.60
2022-09-10T12:00:22.427Z,36.30
2022-09-10T12:05:31.366Z,36.90
2022-09-10T12:10:42.390Z,36.70
2022-09-10T12:15:53.240Z,36.60
2022-09-10T12:21:00.151Z,35.70
2022-09-10T12:26:10.344Z,36.00
2022-09-10T12:31:15.525Z,35.70
2022-09-10T12:37:00.207Z,36.60
2022-09-10T12:42:20.132Z,35.70
2022-09-10T12:47:47.567Z,35.50
2022-09-10T12:53:13.316Z,35.00
2022-09-10T12:58:30.773Z,34.70
2022-09-10T13:03:34.378Z,34.90
2022-09-10T13:08:41.747Z,35.50
2022-09-10T13:13:54.671Z,35.50
2022-09-10T13:19:38.385Z,35.30
2022-09-10T13:25:07.278Z,34.90
2022-09-10T13:30:19.199Z,34.50
2022-09-10T13:35:58.632Z,34.30
2022-09-10T13:41:21.252Z,34.00
2022-09-10T13:46:35.241Z,34.40
2022-09-10T13:51:48.755Z,34.60
2022-09-10T13:56:52.529Z,34.70
2022-09-10T14:01:59.384Z,35.10
2022-09-10T14:07:07.783Z,34.90
2022-09-10T14:12:13.893Z,34.80
2022-09-10T14:17:21.970Z,34.80
2022-09-10T14:22:26.686Z,34.20
2022-09-10T14:27:32.246Z,34.60
2022-09-10T14:32:37.500Z,34.60
2022-09-10T14:37:42.861Z,35.30
2022-09-10T14:42:47.186Z,34.70
2022-09-10T14:47:54.542Z,35.20
2022-09-10T14:52:57.912Z,36.10
2022-09-10T14:58:01.682Z,36.20
2022-09-10T15:03:06.329Z,36.20
2022-09-10T15:08:09.886Z,36.30
2022-09-10T15:13:18.872Z,36.30
2022-09-10T15:18:23.400Z,36.60
2022-09-10T15:23:26.940Z,36.80
2022-09-10T15:28:30.467Z,36.70
2022-09-10T15:33:34.993Z,37.20
2022-09-10T15:38:38.413Z,37.30
2022-09-10T15:43:44.050Z,37.40
2022-09-10T15:48:49.955Z,37.00
2022-09-10T15:53:55.300Z,37.20
2022-09-10T15:58:59.221Z,37.40
2022-09-10T16:04:04.763Z,37.20
2022-09-10T16:09:09.705Z,37.60
2022-09-10T16:14:16.076Z,37.40
2022-09-10T16:19:20.976Z,37.60
2022-09-10T16:24:24.480Z,37.60
2022-09-10T16:29:28.612Z,37.60
2022-09-10T16:34:33.227Z,37.90
2022-09-10T16:39:36.524Z,38.10
2022-09-10T16:44:41.281Z,38.10
2022-09-10T16:49:46.138Z,38.40
2022-09-10T16:54:50.071Z,37.90
2022-09-10T16:59:53.417Z,38.00
2022-09-10T17:04:58.968Z,38.00
2022-09-10T17:10:02.266Z,38.20
2022-09-10T17:15:06.240Z,38.30
2022-09-10T17:20:11.807Z,38.10
2022-09-10T17:25:15.258Z,38.10
2022-09-10T17:30:18.771Z,38.20
2022-09-10T17:35:23.501Z,38.10
2022-09-10T17:40:26.886Z,38.10
2022-09-10T17:45:30.147Z,37.90
2022-09-10T17:50:34.861Z,37.90
2022-09-10T17:55:38.154Z,37.30
2022-09-10T18:00:41.938Z,37.10
2022-09-10T18:05:47.288Z,36.70
2022-09-10T18:10:51.008Z,36.60
2022-09-10T18:15:54.451Z,36.70
2022-09-10T18:21:00.785Z,36.80
2022-09-10T18:26:12.813Z,36.90
2022-09-10T18:31:17.064Z,37.20
2022-09-10T18:36:22.971Z,37.30
2022-09-10T18:41:28.217Z,37.20
2022-09-10T18:46:32.913Z,37.40
2022-09-10T18:51:37.761Z,37.60
2022-09-10T18:56:42.128Z,37.70
2022-09-10T19:01:46.161Z,37.90
2022-09-10T19:06:51.611Z,38.10
2022-09-10T19:11:56.855Z,38.40
2022-09-10T19:17:02.195Z,38.40
2022-09-10T19:22:08.054Z,38.60
2022-09-10T19:27:11.515Z,38.90
2022-09-10T19:32:15.772Z,39.60
2022-09-10T19:37:20.949Z,40.10
2022-09-10T19:42:24.902Z,40.10
2022-09-10T19:47:28.533Z,40.20
2022-09-10T19:52:33.645Z,40.20
2022-09-10T19:57:37.680Z,40.30
2022-09-10T20:02:41.250Z,40.30
2022-09-10T20:07:46.799Z,40.30
2022-09-10T20:12:50.416Z,40.90
2022-09-10T20:17:53.921Z,41.10
2022-09-10T20:23:02.081Z,41.20
2022-09-10T20:28:05.981Z,41.20
2022-09-10T20:33:09.344Z,41.00
2022-09-10T20:38:14.051Z,42.00
2022-09-10T20:43:17.304Z,44.20
2022-09-10T20:48:22.737Z,44.50
2022-09-10T20:53:28.165Z,44.70
2022-09-10T20:58:33.589Z,44.20
2022-09-10T21:03:37.101Z,43.40
2022-09-10T21:08:43.369Z,43.10
2022-09-10T21:13:48.592Z,43.50
2022-09-10T21:18:54.740Z,42.30
2022-09-10T21:24:01.630Z,42.80
2022-09-10T21:29:07.335Z,41.80
2022-09-10T21:34:10.696Z,41.40
2022-09-10T21:39:16.607Z,41.30
2022-09-10T21:44:22.193Z,41.00
2022-09-10T21:49:25.896Z,40.80
2022-09-10T21:54:30.476Z,40.60
2022-09-10T21:59:33.786Z,40.40
2022-09-10T22:04:36.963Z,40.30
2022-09-10T22:09:41.507Z,41.00
2022-09-10T22:14:45.063Z,40.10
2022-09-10T22:19:48.395Z,40.00
2022-09-10T22:24:53.571Z,39.90
2022-09-10T22:29:57.048Z,39.70
2022-09-10T22:35:00.266Z,39.60
2022-09-10T22:40:05.928Z,39.70
2022-09-10T22:45:10.194Z,39.50
2022-09-10T22:50:13.528Z,39.60
2022-09-10T22:55:18.187Z,39.30
2022-09-10T23:00:22.266Z,39.20
2022-09-10T23:05:25.740Z,39.40
2022-09-10T23:10:30.307Z,39.60
2022-09-10T23:15:33.689Z,39.70
2022-09-10T23:20:37.533Z,40.40
2022-09-10T23:25:43.453Z,39.80
2022-09-10T23:30:47.239Z,39.80
2022-09-10T23:35:51.196Z,39.80
2022-09-10T23:40:56.507Z,39.80
2022-09-10T23:46:00.219Z,39.70
2022-09-10T23:51:04.389Z,39.60
2022-09-10T23:56:09.272Z,39.70
